Time;durP1;ratioP1;P1;durP2;ratioP2;P2;SDS_P1;SDS_P2;PMS_P1;PMS_P2;Temp;Humidity;BMP_temperature;BMP_pressure;BME280_temperature;BME280_humidity;BME280_pressure;Samples;Min_cycle;Max_cycle;Signal;HPM_P1;HPM_P2
2021/04/20 00:00:43;;;;;;;4.43;2.60;;;21.10;41.70;;;;;;5007310;28;20427;-73
2021/04/20 00:03:09;;;;;;;3.60;3.10;;;21.10;41.80;;;;;;5009881;28;20421;-72
2021/04/20 00:05:35;;;;;;;3.33;2.60;;;21.10;41.80;;;;;;5004719;28;20428;-72
2021/04/20 00:08:01;;;;;;;3.50;2.60;;;21.10;41.80;;;;;;5008012;28;20930;-70
2021/04/20 00:10:27;;;;;;;3.95;2.75;;;21.10;41.70;;;;;;5013758;28;20407;-71
2021/04/20 00:12:54;;;;;;;2.80;2.60;;;21.10;41.70;;;;;;5010386;28;20437;-71
2021/04/20 00:15:23;;;;;;;2.70;2.50;;;21.10;41.70;;;;;;5009567;28;20469;-72
2021/04/20 00:17:49;;;;;;;3.08;2.88;;;21.10;41.70;;;;;;5008432;28;20433;-75
2021/04/20 00:20:16;;;;;;;3.15;2.85;;;21.10;41.80;;;;;;5005886;28;21355;-73
2021/04/20 00:22:42;;;;;;;3.95;2.58;;;21.10;41.60;;;;;;5010571;28;20439;-72
2021/04/20 00:25:09;;;;;;;4.40;3.20;;;21.10;41.60;;;;;;5006364;28;20426;-72
2021/04/20 00:27:35;;;;;;;3.00;2.80;;;21.10;41.80;;;;;;5001055;28;20425;-72
2021/04/20 00:30:03;;;;;;;3.30;2.63;;;21.10;41.70;;;;;;5003654;28;20405;-74
2021/04/20 00:32:29;;;;;;;2.70;2.50;;;21.10;41.80;;;;;;5017799;28;21587;-72
2021/04/20 00:34:55;;;;;;;3.40;3.10;;;21.10;41.80;;;;;;5003410;28;20421;-72
2021/04/20 00:37:22;;;;;;;3.20;2.90;;;21.10;41.70;;;;;;5008449;28;20414;-69
2021/04/20 00:39:48;;;;;;;3.63;2.58;;;21.20;41.90;;;;;;5007378;28;20430;-71
2021/04/20 00:42:14;;;;;;;3.80;2.80;;;21.20;41.80;;;;;;5007632;28;20412;-72
2021/04/20 00:44:40;;;;;;;3.42;3.13;;;21.20;41.80;;;;;;5007840;28;20420;-71
2021/04/20 00:47:07;;;;;;;2.63;2.45;;;21.20;41.60;;;;;;5009197;28;20420;-72
2021/04/20 00:49:33;;;;;;;3.70;2.70;;;21.10;41.50;;;;;;5007724;28;20415;-74
2021/04/20 00:51:59;;;;;;;3.33;2.80;;;21.10;41.30;;;;;;5008515;28;20419;-75
2021/04/20 00:54:26;;;;;;;3.22;2.70;;;21.10;41.30;;;;;;5008612;28;20414;-74
2021/04/20 00:56:52;;;;;;;5.40;3.08;;;21.10;41.40;;;;;;5014034;28;20422;-74
2021/04/20 00:59:19;;;;;;;3.33;2.85;;;21.10;41.50;;;;;;5006748;28;21052;-73
2021/04/20 01:01:45;;;;;;;2.90;2.70;;;21.10;41.50;;;;;;5008861;28;20432;-70
2021/04/20 01:04:13;;;;;;;4.00;3.30;;;21.10;41.40;;;;;;5006454;28;20839;-78
2021/04/20 01:06:40;;;;;;;3.10;2.80;;;21.10;41.00;;;;;;5008026;28;20425;-72
2021/04/20 01:09:06;;;;;;;4.65;3.40;;;21.10;41.00;;;;;;5008831;28;20907;-76
2021/04/20 01:11:33;;;;;;;2.95;2.72;;;21.10;40.90;;;;;;5011092;28;20997;-74
2021/04/20 01:14:00;;;;;;;4.90;3.00;;;21.00;41.10;;;;;;5003290;28;20439;-73
2021/04/20 01:16:26;;;;;;;2.90;2.50;;;21.00;40.90;;;;;;5020613;28;20416;-74
2021/04/20 01:18:52;;;;;;;3.17;2.88;;;21.00;41.20;;;;;;5029292;28;20422;-77
2021/04/20 01:21:19;;;;;;;4.50;2.80;;;21.10;41.30;;;;;;5032393;28;20417;-74
2021/04/20 01:23:52;;;;;;;3.78;2.83;;;21.10;41.60;;;;;;5032586;28;20439;-71
2021/04/20 01:26:20;;;;;;;3.10;2.40;;;21.10;41.60;;;;;;5006043;28;20500;-70
2021/04/20 01:28:46;;;;;;;2.60;2.40;;;21.10;41.50;;;;;;5018688;28;20415;-70
2021/04/20 01:31:12;;;;;;;3.58;3.10;;;21.20;41.40;;;;;;5000316;28;20429;-70
2021/04/20 01:33:39;;;;;;;2.53;2.33;;;21.20;41.30;;;;;;5009367;28;20409;-71
2021/04/20 01:36:06;;;;;;;3.00;2.67;;;21.20;41.30;;;;;;4990107;28;20427;-71
2021/04/20 01:38:32;;;;;;;3.05;2.75;;;21.20;41.20;;;;;;5009165;28;20419;-71
2021/04/20 01:40:58;;;;;;;4.03;2.13;;;21.20;41.10;;;;;;4992520;28;21369;-72
2021/04/20 01:43:26;;;;;;;3.50;3.00;;;21.20;41.20;;;;;;5009339;28;20439;-76
2021/04/20 01:45:52;;;;;;;2.80;2.60;;;21.20;41.40;;;;;;5000927;28;20415;-72
2021/04/20 01:48:18;;;;;;;5.50;3.22;;;21.20;41.60;;;;;;4990916;28;20457;-71
2021/04/20 01:50:44;;;;;;;3.85;2.78;;;21.20;41.30;;;;;;5007210;28;20437;-72
2021/04/20 01:53:10;;;;;;;4.43;3.00;;;21.10;41.20;;;;;;5006400;28;20425;-72
2021/04/20 01:55:38;;;;;;;4.43;2.55;;;21.10;41.30;;;;;;5007835;28;20900;-71
2021/04/20 01:58:04;;;;;;;3.60;2.73;;;21.10;41.30;;;;;;5005196;28;21236;-72
2021/04/20 02:00:31;;;;;;;3.30;3.00;;;21.10;41.20;;;;;;5004896;28;20416;-71
2021/04/20 02:02:58;;;;;;;4.43;2.40;;;21.10;41.30;;;;;;5004798;28;21463;-72
2021/04/20 02:05:24;;;;;;;3.25;2.95;;;21.10;41.30;;;;;;5007996;28;20473;-73
2021/04/20 02:07:50;;;;;;;3.00;2.70;;;21.10;41.40;;;;;;5008941;28;20507;-70
2021/04/20 02:10:16;;;;;;;2.33;2.22;;;21.10;41.30;;;;;;5005833;28;20432;-72
2021/04/20 02:12:42;;;;;;;3.20;2.90;;;21.10;41.30;;;;;;5007879;28;20425;-70
2021/04/20 02:15:11;;;;;;;3.60;3.30;;;21.20;41.20;;;;;;5008465;28;20941;-70
2021/04/20 02:17:38;;;;;;;3.30;2.80;;;21.10;41.20;;;;;;4997398;28;20411;-75
2021/04/20 02:20:04;;;;;;;4.50;3.40;;;21.10;41.10;;;;;;5006928;28;20427;-73
2021/04/20 02:22:31;;;;;;;3.00;2.70;;;21.10;41.30;;;;;;5006860;28;20418;-70
2021/04/20 02:24:57;;;;;;;6.00;2.87;;;21.10;41.10;;;;;;5003384;28;20431;-72
2021/04/20 02:27:23;;;;;;;2.90;2.70;;;21.10;41.20;;;;;;5005993;28;20409;-76
2021/04/20 02:29:49;;;;;;;2.60;2.50;;;21.10;41.10;;;;;;5007422;28;21594;-70
2021/04/20 02:32:15;;;;;;;3.50;2.90;;;21.00;41.00;;;;;;5006489;28;20417;-75
2021/04/20 02:34:42;;;;;;;4.07;2.60;;;21.00;40.80;;;;;;5008199;28;20424;-70
2021/04/20 02:37:09;;;;;;;3.30;3.00;;;21.00;40.70;;;;;;5004028;28;20423;-73
2021/04/20 02:39:35;;;;;;;5.47;3.38;;;21.00;41.00;;;;;;5007481;28;20433;-72
2021/04/20 02:42:01;;;;;;;5.25;2.80;;;21.00;40.80;;;;;;5010730;28;20455;-72
2021/04/20 02:44:28;;;;;;;3.30;2.70;;;21.00;41.00;;;;;;5006519;28;20416;-72
2021/04/20 02:46:54;;;;;;;3.30;3.00;;;20.90;40.60;;;;;;5006931;28;20434;-70
2021/04/20 02:49:20;;;;;;;4.07;3.15;;;21.00;40.70;;;;;;5005491;28;20420;-71
2021/04/20 02:51:47;;;;;;;3.20;2.90;;;21.00;40.40;;;;;;5006474;28;20415;-74
2021/04/20 02:54:14;;;;;;;3.55;2.53;;;20.90;40.40;;;;;;5013300;28;20900;-72
2021/04/20 02:56:40;;;;;;;3.10;2.80;;;20.90;40.80;;;;;;5006534;28;20524;-71
2021/04/20 02:59:09;;;;;;;2.85;2.63;;;21.00;40.90;;;;;;5007246;28;20435;-72
2021/04/20 03:01:36;;;;;;;2.90;2.60;;;20.90;41.10;;;;;;5006906;28;20403;-72
2021/04/20 03:04:02;;;;;;;2.90;2.60;;;21.00;41.20;;;;;;5005994;28;20423;-71
2021/04/20 03:06:29;;;;;;;3.20;2.40;;;21.00;41.20;;;;;;5004129;28;20430;-72
2021/04/20 03:08:56;;;;;;;6.00;2.90;;;21.00;41.00;;;;;;5003538;28;20850;-73
2021/04/20 03:11:23;;;;;;;3.60;2.92;;;21.00;40.40;;;;;;5012638;28;20418;-71
2021/04/20 03:13:49;;;;;;;4.32;3.17;;;21.00;40.00;;;;;;5009814;28;20421;-73
2021/04/20 03:16:16;;;;;;;3.50;3.20;;;21.00;39.70;;;;;;5007409;28;22016;-73
2021/04/20 03:18:42;;;;;;;4.03;2.83;;;21.10;40.10;;;;;;5004638;28;20420;-72
2021/04/20 03:21:10;;;;;;;3.70;2.90;;;21.10;39.50;;;;;;4999983;28;20417;-72
2021/04/20 03:23:36;;;;;;;5.00;3.25;;;21.10;39.60;;;;;;5018657;28;20409;-74
2021/04/20 03:26:03;;;;;;;3.50;3.20;;;21.20;39.00;;;;;;5003764;28;20916;-71
2021/04/20 03:28:30;;;;;;;3.67;3.40;;;21.20;38.90;;;;;;5000761;28;20429;-75
2021/04/20 03:30:59;;;;;;;3.55;3.25;;;21.30;39.00;;;;;;5005707;28;20423;-75
2021/04/20 03:33:27;;;;;;;5.10;3.50;;;21.30;39.00;;;;;;5005977;28;20423;-71
2021/04/20 03:35:58;;;;;;;3.67;2.90;;;21.30;39.00;;;;;;5003548;28;20958;-73
2021/04/20 03:38:27;;;;;;;3.05;2.75;;;21.40;39.10;;;;;;5003034;28;21605;-73
2021/04/20 03:40:55;;;;;;;3.37;3.07;;;21.40;39.10;;;;;;4998427;28;20426;-74
2021/04/20 03:43:24;;;;;;;3.30;3.00;;;21.40;39.10;;;;;;5015589;28;20441;-71
2021/04/20 03:45:52;;;;;;;4.00;3.70;;;21.30;39.00;;;;;;5002879;28;20433;-72
2021/04/20 03:48:20;;;;;;;2.97;2.70;;;21.30;39.00;;;;;;5005503;28;20420;-72
2021/04/20 03:50:52;;;;;;;5.78;3.40;;;21.20;38.90;;;;;;5002341;28;20435;-71
2021/04/20 03:53:18;;;;;;;4.80;3.10;;;21.20;38.90;;;;;;5004937;28;20485;-74
2021/04/20 03:55:47;;;;;;;4.65;3.33;;;21.20;38.90;;;;;;5003695;28;20444;-74
2021/04/20 03:58:14;;;;;;;3.33;2.80;;;21.20;39.00;;;;;;5003057;28;21090;-72
2021/04/20 04:00:41;;;;;;;3.60;2.80;;;21.20;38.90;;;;;;4991878;28;20430;-72
2021/04/20 04:03:08;;;;;;;3.72;3.10;;;21.20;38.90;;;;;;4998765;28;20429;-71
2021/04/20 04:05:34;;;;;;;2.88;2.58;;;21.10;38.80;;;;;;5000764;28;20625;-73
2021/04/20 04:08:01;;;;;;;4.23;3.83;;;21.10;38.90;;;;;;5001804;28;20432;-75
2021/04/20 04:10:28;;;;;;;3.40;3.08;;;21.10;39.30;;;;;;4994688;28;20552;-74
2021/04/20 04:12:56;;;;;;;3.83;3.13;;;21.10;38.80;;;;;;5018916;28;20419;-71
2021/04/20 04:15:22;;;;;;;4.45;3.08;;;21.10;39.30;;;;;;5002996;28;20494;-71
2021/04/20 04:17:49;;;;;;;3.55;3.10;;;21.10;39.50;;;;;;5001044;28;20415;-72
2021/04/20 04:20:18;;;;;;;8.15;3.90;;;21.10;39.30;;;;;;5004087;28;20424;-72
2021/04/20 04:22:48;;;;;;;3.63;3.33;;;21.20;39.10;;;;;;5005182;28;20459;-72
2021/04/20 04:25:14;;;;;;;3.97;3.20;;;21.20;38.90;;;;;;5005776;28;20466;-72
2021/04/20 04:27:43;;;;;;;4.40;3.00;;;21.20;38.90;;;;;;5004111;28;20428;-70
2021/04/20 04:30:11;;;;;;;3.67;3.30;;;21.30;39.00;;;;;;5005005;28;20424;-77
2021/04/20 04:32:38;;;;;;;3.40;3.00;;;21.30;39.00;;;;;;5004036;28;20408;-72
2021/04/20 04:35:06;;;;;;;2.83;2.63;;;21.30;39.00;;;;;;5002929;28;20418;-74
2021/04/20 04:37:33;;;;;;;2.90;2.70;;;21.30;39.00;;;;;;5005628;28;20427;-74
2021/04/20 04:39:59;;;;;;;4.45;2.97;;;21.30;39.00;;;;;;5001306;28;20506;-73
2021/04/20 04:42:25;;;;;;;5.90;3.17;;;21.30;39.00;;;;;;5004735;28;20423;-74
2021/04/20 04:44:51;;;;;;;3.50;2.97;;;21.20;38.90;;;;;;5003563;28;20462;-72
2021/04/20 04:47:17;;;;;;;4.10;2.93;;;21.20;38.90;;;;;;5001685;28;20420;-71
2021/04/20 04:49:44;;;;;;;3.70;3.00;;;21.20;38.90;;;;;;5009426;28;20532;-73
2021/04/20 04:52:11;;;;;;;3.25;2.90;;;21.20;38.90;;;;;;5008070;28;20425;-72
2021/04/20 04:54:37;;;;;;;4.23;2.70;;;21.20;38.90;;;;;;4991632;28;20447;-76
2021/04/20 04:57:04;;;;;;;3.65;3.10;;;21.20;38.90;;;;;;5007352;28;20415;-77
2021/04/20 04:59:30;;;;;;;4.75;3.30;;;21.10;38.80;;;;;;5008202;28;20412;-73
2021/04/20 05:01:56;;;;;;;5.50;3.70;;;21.10;38.80;;;;;;5007920;28;20428;-75
2021/04/20 05:04:23;;;;;;;4.35;3.35;;;21.10;38.80;;;;;;5008772;28;20422;-74
2021/04/20 05:06:51;;;;;;;3.15;2.85;;;21.10;38.80;;;;;;4997085;28;21309;-75
2021/04/20 05:09:19;;;;;;;6.75;3.47;;;21.10;38.80;;;;;;5014638;28;20423;-74
2021/04/20 05:11:46;;;;;;;3.63;3.25;;;21.00;38.70;;;;;;5008854;28;20424;-75
2021/04/20 05:14:12;;;;;;;4.13;3.40;;;21.10;38.80;;;;;;5032218;28;20421;-74
2021/04/20 05:16:39;;;;;;;3.55;3.25;;;21.10;38.80;;;;;;5035441;28;20471;-72
2021/04/20 05:19:06;;;;;;;4.13;3.70;;;21.10;38.80;;;;;;5027112;28;20412;-72
2021/04/20 05:21:33;;;;;;;4.80;3.97;;;21.10;38.80;;;;;;5003188;28;20421;-72
2021/04/20 05:23:59;;;;;;;4.53;3.40;;;21.10;39.60;;;;;;4987010;28;20509;-72
2021/04/20 05:26:27;;;;;;;7.30;3.13;;;21.10;38.80;;;;;;4996413;28;20420;-72
2021/04/20 05:28:53;;;;;;;6.13;3.50;;;21.10;38.80;;;;;;5000211;28;20930;-71
2021/04/20 05:31:19;;;;;;;4.35;3.20;;;21.10;38.80;;;;;;4990238;28;20425;-75
2021/04/20 05:33:45;;;;;;;4.30;3.40;;;21.10;38.80;;;;;;5002068;28;20423;-73
2021/04/20 05:36:12;;;;;;;8.43;4.40;;;21.10;38.80;;;;;;4997641;28;20428;-73
2021/04/20 05:38:38;;;;;;;5.87;3.67;;;21.00;38.70;;;;;;5006362;28;20465;-72
2021/04/20 05:41:06;;;;;;;6.78;3.60;;;21.00;39.10;;;;;;4983157;28;20462;-73
2021/04/20 05:43:33;;;;;;;4.75;3.83;;;21.00;38.70;;;;;;5002406;28;20446;-74
2021/04/20 05:45:59;;;;;;;6.88;3.50;;;21.00;38.70;;;;;;4984994;28;20427;-73
2021/04/20 05:48:25;;;;;;;4.13;3.50;;;21.00;39.10;;;;;;5005687;28;20577;-73
2021/04/20 05:50:51;;;;;;;5.60;4.00;;;21.00;39.20;;;;;;4997517;28;20862;-75
2021/04/20 05:53:17;;;;;;;4.10;3.70;;;21.00;39.40;;;;;;4996261;28;20417;-76
2021/04/20 05:55:44;;;;;;;5.65;3.60;;;21.00;38.80;;;;;;5001098;28;20422;-74
2021/04/20 05:58:10;;;;;;;5.43;3.50;;;21.00;38.70;;;;;;5004398;28;20413;-75
2021/04/20 06:00:37;;;;;;;8.30;3.60;;;21.00;38.70;;;;;;4993722;28;20422;-76
2021/04/20 06:03:03;;;;;;;6.90;3.80;;;21.00;38.70;;;;;;4999059;28;22237;-73
2021/04/20 06:05:29;;;;;;;6.03;3.60;;;21.00;38.70;;;;;;5003664;28;20429;-73
2021/04/20 06:07:58;;;;;;;5.03;3.38;;;21.00;38.70;;;;;;5008161;28;20422;-72
2021/04/20 06:10:24;;;;;;;4.00;3.60;;;21.00;38.70;;;;;;4998569;28;20422;-74
2021/04/20 06:12:50;;;;;;;9.80;3.90;;;21.10;38.80;;;;;;4994879;28;20433;-72
2021/04/20 06:15:18;;;;;;;4.50;3.10;;;21.20;38.90;;;;;;5000055;28;20413;-72
2021/04/20 06:17:45;;;;;;;4.38;3.15;;;21.20;38.90;;;;;;4999513;28;20427;-78
2021/04/20 06:20:12;;;;;;;4.00;3.70;;;21.20;38.90;;;;;;5002343;28;21056;-72
2021/04/20 06:22:41;;;;;;;4.15;3.30;;;21.20;38.90;;;;;;4997741;28;20419;-73
2021/04/20 06:25:10;;;;;;;6.05;3.22;;;21.30;39.00;;;;;;4998432;28;20416;-72
2021/04/20 06:27:36;;;;;;;6.40;3.10;;;21.30;39.00;;;;;;4994850;28;22000;-75
2021/04/20 06:30:03;;;;;;;2.88;2.53;;;21.30;39.00;;;;;;5000500;28;20493;-76
2021/04/20 06:32:29;;;;;;;4.55;2.83;;;21.30;39.00;;;;;;4993477;28;20407;-74
2021/04/20 06:34:56;;;;;;;3.17;2.88;;;21.30;39.00;;;;;;5001454;28;20461;-77
2021/04/20 06:37:22;;;;;;;4.13;3.35;;;21.20;38.90;;;;;;5001891;28;20448;-75
2021/04/20 06:39:48;;;;;;;4.07;2.90;;;21.20;38.90;;;;;;5003648;28;20417;-73
2021/04/20 06:42:18;;;;;;;5.82;2.83;;;21.20;38.90;;;;;;4998189;28;20420;-74
2021/04/20 06:44:48;;;;;;;4.10;2.90;;;21.20;38.90;;;;;;4997229;28;20429;-79
2021/04/20 06:47:15;;;;;;;3.10;2.90;;;21.20;38.90;;;;;;4999346;28;21095;-72
2021/04/20 06:49:44;;;;;;;3.38;3.08;;;21.20;38.90;;;;;;5004334;28;20430;-73
2021/04/20 06:52:15;;;;;;;3.40;3.10;;;21.20;38.90;;;;;;4999370;28;20453;-73
2021/04/20 06:54:44;;;;;;;6.22;2.78;;;21.20;38.90;;;;;;4987456;28;20744;-73
2021/04/20 06:57:12;;;;;;;2.65;2.45;;;21.20;38.90;;;;;;4984574;28;20408;-74
2021/04/20 06:59:43;;;;;;;3.60;2.93;;;21.20;38.90;;;;;;4984856;28;20424;-73
2021/04/20 07:02:12;;;;;;;3.25;2.70;;;21.20;38.90;;;;;;4981934;28;20446;-72
2021/04/20 07:04:43;;;;;;;4.97;2.78;;;21.20;38.90;;;;;;4992260;28;20470;-74
2021/04/20 07:07:14;;;;;;;5.67;2.13;;;21.10;38.90;;;;;;4986558;28;20440;-72
2021/04/20 07:09:41;;;;;;;2.25;2.05;;;21.10;39.20;;;;;;4976913;28;20448;-76
2021/04/20 07:12:08;;;;;;;4.55;2.80;;;21.10;39.50;;;;;;4979099;28;20418;-72
2021/04/20 07:14:35;;;;;;;2.80;2.50;;;21.10;39.60;;;;;;5003191;28;20411;-73
2021/04/20 07:17:18;;;;;;;2.60;2.40;;;21.10;39.70;;;;;;4994981;28;20442;-73
2021/04/20 07:19:55;;;;;;;2.78;2.38;;;21.20;39.60;;;;;;4990504;28;20461;-73
2021/04/20 07:22:51;;;;;;;3.30;2.90;;;21.20;39.60;;;;;;4998630;28;20421;-73
2021/04/20 07:25:22;;;;;;;3.65;2.63;;;21.20;39.60;;;;;;4994949;28;20401;-72
2021/04/20 07:27:54;;;;;;;2.80;2.60;;;21.20;39.60;;;;;;4997102;28;20520;-74
2021/04/20 07:30:23;;;;;;;2.50;2.30;;;21.20;39.60;;;;;;4997343;28;20435;-77
2021/04/20 07:33:10;;;;;;;3.03;2.35;;;21.20;39.70;;;;;;4998587;28;21212;-72
2021/04/20 07:35:37;;;;;;;2.35;2.15;;;21.10;39.70;;;;;;4997168;28;20482;-72
2021/04/20 07:38:10;;;;;;;2.63;2.35;;;21.10;39.60;;;;;;4995008;28;20425;-73
2021/04/20 07:40:40;;;;;;;2.33;2.13;;;21.20;39.80;;;;;;4999778;28;20407;-79
2021/04/20 07:43:18;;;;;;;3.00;2.50;;;21.20;39.80;;;;;;4998533;28;20410;-72
2021/04/20 07:45:49;;;;;;;3.00;2.40;;;21.20;39.80;;;;;;5000285;28;20871;-75
2021/04/20 07:48:22;;;;;;;2.40;2.20;;;21.20;39.80;;;;;;4989632;28;20416;-76
2021/04/20 07:50:50;;;;;;;4.22;2.70;;;21.20;39.80;;;;;;4990214;28;20415;-74
2021/04/20 07:53:21;;;;;;;2.20;2.10;;;21.10;39.90;;;;;;4997489;28;20498;-74
2021/04/20 07:55:51;;;;;;;2.40;2.20;;;21.10;39.90;;;;;;4995024;28;20842;-73
2021/04/20 07:58:20;;;;;;;3.70;2.45;;;21.20;40.00;;;;;;4997013;28;20532;-73
2021/04/20 08:00:48;;;;;;;4.63;2.33;;;21.20;40.00;;;;;;4994651;28;21168;-72
2021/04/20 08:03:16;;;;;;;2.67;2.47;;;21.10;40.00;;;;;;4995800;28;20417;-74
2021/04/20 08:05:47;;;;;;;2.13;2.03;;;21.10;40.00;;;;;;4998394;28;20437;-76
2021/04/20 08:08:14;;;;;;;2.60;2.25;;;21.10;40.10;;;;;;4999611;28;20474;-75
2021/04/20 08:10:43;;;;;;;2.35;2.15;;;21.10;40.20;;;;;;4997800;28;20560;-72
2021/04/20 08:13:16;;;;;;;2.30;2.10;;;21.10;40.20;;;;;;4986362;28;20451;-73
2021/04/20 08:15:46;;;;;;;3.50;2.40;;;21.10;40.30;;;;;;4995796;28;20444;-73
2021/04/20 08:18:14;;;;;;;2.28;2.08;;;21.10;40.30;;;;;;4996397;28;20421;-73
2021/04/20 08:20:42;;;;;;;2.50;2.20;;;21.20;40.20;;;;;;5003414;28;20462;-71
2021/04/20 08:23:08;;;;;;;2.28;2.17;;;21.20;40.10;;;;;;4987526;28;20428;-73
2021/04/20 08:25:37;;;;;;;2.10;2.00;;;21.30;40.10;;;;;;5000043;28;21027;-72
2021/04/20 08:28:09;;;;;;;2.00;1.90;;;21.30;40.00;;;;;;5001614;28;20416;-76
2021/04/20 08:30:40;;;;;;;2.30;2.20;;;21.30;40.00;;;;;;4999653;28;20418;-78
2021/04/20 08:33:10;;;;;;;2.40;2.20;;;21.30;40.10;;;;;;5004244;28;20408;-73
2021/04/20 08:35:36;;;;;;;1.63;1.53;;;21.30;40.10;;;;;;5002500;28;20430;-74
2021/04/20 08:38:07;;;;;;;2.05;1.95;;;21.30;40.20;;;;;;4998993;28;20420;-72
2021/04/20 08:40:40;;;;;;;2.50;2.30;;;21.30;41.00;;;;;;4998805;28;20434;-74
2021/04/20 08:43:11;;;;;;;1.98;1.88;;;21.30;40.20;;;;;;4997834;28;20415;-75
2021/04/20 08:45:40;;;;;;;2.28;2.08;;;21.30;40.40;;;;;;5006458;28;20412;-72
2021/04/20 08:48:13;;;;;;;2.50;2.20;;;21.30;40.30;;;;;;4999567;28;20421;-75
2021/04/20 08:50:42;;;;;;;2.00;1.80;;;21.30;40.60;;;;;;4998036;28;20416;-73
2021/04/20 08:53:18;;;;;;;3.10;1.77;;;21.30;40.30;;;;;;5004175;28;20415;-72
2021/04/20 08:55:47;;;;;;;2.65;1.92;;;21.40;40.30;;;;;;5021838;28;21333;-74
2021/04/20 08:58:38;;;;;;;1.80;1.70;;;21.40;40.20;;;;;;5020833;28;20412;-72
2021/04/20 09:01:23;;;;;;;2.20;1.60;;;21.50;40.10;;;;;;5002262;28;20764;-71
2021/04/20 09:03:52;;;;;;;1.73;1.63;;;21.50;40.00;;;;;;4998093;28;20498;-71
2021/04/20 09:06:23;;;;;;;1.70;1.60;;;21.50;40.00;;;;;;4992502;28;20422;-74
2021/04/20 09:08:50;;;;;;;2.47;2.00;;;21.50;40.00;;;;;;4990604;28;20438;-73
2021/04/20 09:11:20;;;;;;;2.17;1.63;;;21.50;40.00;;;;;;4994874;28;20452;-74
2021/04/20 09:13:55;;;;;;;2.92;2.72;;;21.50;39.90;;;;;;4993591;28;20423;-74
2021/04/20 09:16:24;;;;;;;2.20;1.60;;;21.50;40.00;;;;;;4994195;28;20503;-72
2021/04/20 09:18:50;;;;;;;2.10;2.00;;;21.50;41.00;;;;;;4998979;28;20516;-71
2021/04/20 09:21:18;;;;;;;1.90;1.80;;;21.50;40.10;;;;;;4993464;28;20427;-73
2021/04/20 09:23:53;;;;;;;1.75;1.65;;;21.40;40.10;;;;;;5009409;28;20421;-72
2021/04/20 09:26:25;;;;;;;2.90;1.95;;;21.40;40.30;;;;;;5002713;28;20514;-71
2021/04/20 09:28:59;;;;;;;1.65;1.55;;;21.40;40.40;;;;;;5010372;28;20816;-73
2021/04/20 09:31:26;;;;;;;2.03;1.92;;;21.40;40.40;;;;;;4994892;28;20871;-73
2021/04/20 09:33:53;;;;;;;2.17;2.08;;;21.40;41.40;;;;;;5003259;28;20419;-73
2021/04/20 09:36:19;;;;;;;1.88;1.70;;;21.40;40.50;;;;;;5005193;28;20425;-72
2021/04/20 09:38:47;;;;;;;2.13;2.03;;;21.40;40.40;;;;;;5005802;28;20419;-72
2021/04/20 09:41:14;;;;;;;1.70;1.60;;;21.40;40.50;;;;;;4995966;28;20841;-73
2021/04/20 09:43:47;;;;;;;1.80;1.70;;;21.50;40.50;;;;;;5000103;28;20420;-72
2021/04/20 09:46:17;;;;;;;5.30;1.70;;;21.50;40.50;;;;;;4992071;28;20415;-72
2021/04/20 09:48:48;;;;;;;1.75;1.63;;;21.50;41.20;;;;;;5004020;28;20415;-75
2021/04/20 09:51:16;;;;;;;3.38;1.70;;;21.50;40.30;;;;;;4999692;28;20417;-72
2021/04/20 09:53:50;;;;;;;1.90;1.80;;;21.50;40.40;;;;;;4995640;28;20455;-73
2021/04/20 09:56:18;;;;;;;1.60;1.50;;;21.50;40.50;;;;;;5005896;28;20438;-73
2021/04/20 09:58:45;;;;;;;1.50;1.40;;;21.40;41.20;;;;;;5000668;28;20425;-73
2021/04/20 10:01:32;;;;;;;2.10;1.60;;;21.40;40.60;;;;;;4998264;28;20473;-71
2021/04/20 10:04:02;;;;;;;2.28;1.77;;;21.40;40.60;;;;;;5002544;28;21006;-72
2021/04/20 10:06:38;;;;;;;1.55;1.45;;;21.40;40.60;;;;;;4997393;28;20416;-73
2021/04/20 10:09:09;;;;;;;3.00;1.70;;;21.30;40.70;;;;;;4996942;28;20493;-71
2021/04/20 10:11:41;;;;;;;1.48;1.38;;;21.30;40.50;;;;;;4997195;28;20422;-73
2021/04/20 10:14:16;;;;;;;1.90;1.80;;;21.30;40.70;;;;;;5004688;28;20490;-75
2021/04/20 10:16:48;;;;;;;1.80;1.70;;;21.30;40.80;;;;;;4986740;28;20471;-72
2021/04/20 10:19:18;;;;;;;1.80;1.70;;;21.30;40.70;;;;;;5009286;28;20432;-72
2021/04/20 10:21:54;;;;;;;1.70;1.60;;;21.20;40.70;;;;;;4993852;28;20897;-71
2021/04/20 10:24:22;;;;;;;2.00;1.77;;;21.20;41.00;;;;;;4999385;28;20489;-75
2021/04/20 10:26:59;;;;;;;1.55;1.45;;;21.30;40.90;;;;;;5002941;28;20420;-75
2021/04/20 10:29:26;;;;;;;1.48;1.40;;;21.40;40.50;;;;;;4997393;28;20749;-71
2021/04/20 10:31:56;;;;;;;1.45;1.33;;;21.40;40.70;;;;;;4995844;28;20427;-72
2021/04/20 10:34:22;;;;;;;1.42;1.33;;;21.50;40.70;;;;;;4999950;28;20503;-74
2021/04/20 10:36:50;;;;;;;1.48;1.20;;;21.50;40.60;;;;;;4999556;28;20467;-71
2021/04/20 10:39:17;;;;;;;1.83;1.73;;;21.50;40.60;;;;;;4997357;28;20423;-74
2021/04/20 10:41:44;;;;;;;1.90;1.50;;;21.50;40.50;;;;;;4993479;28;20417;-74
2021/04/20 10:44:11;;;;;;;1.58;1.48;;;21.50;40.60;;;;;;5016552;28;20966;-71
2021/04/20 10:46:37;;;;;;;1.70;1.60;;;21.50;40.50;;;;;;4999379;28;20871;-73
2021/04/20 10:49:05;;;;;;;1.80;1.70;;;21.50;40.70;;;;;;5004581;28;20793;-76
2021/04/20 10:51:33;;;;;;;1.30;1.30;;;21.50;40.80;;;;;;4998291;28;20414;-71
2021/04/20 10:53:59;;;;;;;3.70;1.67;;;21.40;40.60;;;;;;4994918;28;20420;-73
2021/04/20 10:56:26;;;;;;;1.40;1.30;;;21.40;40.80;;;;;;5001761;28;20500;-73
2021/04/20 10:58:54;;;;;;;1.50;1.40;;;21.40;40.90;;;;;;4996806;28;20433;-76
2021/04/20 11:01:22;;;;;;;1.50;1.40;;;21.30;40.90;;;;;;4997320;28;20427;-71
2021/04/20 11:03:49;;;;;;;1.98;1.77;;;21.30;40.80;;;;;;5003056;28;20432;-75
2021/04/20 11:06:53;;;;;;;1.63;1.52;;;21.40;40.70;;;;;;5001566;28;20855;-74
2021/04/20 11:09:28;;;;;;;1.60;1.50;;;21.40;40.90;;;;;;4996602;28;20451;-73
2021/04/20 11:11:54;;;;;;;2.30;1.30;;;21.40;40.70;;;;;;4992649;28;20573;-71
2021/04/20 11:14:37;;;;;;;1.60;1.50;;;21.50;40.70;;;;;;4997869;28;20486;-70
2021/04/20 11:17:04;;;;;;;1.63;1.52;;;21.50;40.70;;;;;;4998726;28;21281;-72
2021/04/20 11:19:30;;;;;;;2.20;1.50;;;21.50;40.60;;;;;;4996155;28;20419;-74
2021/04/20 11:21:56;;;;;;;1.70;1.60;;;21.50;40.60;;;;;;4993928;28;20435;-73
2021/04/20 11:24:22;;;;;;;2.60;1.70;;;21.50;40.70;;;;;;4994777;28;20453;-73
2021/04/20 11:26:53;;;;;;;1.90;1.80;;;21.40;40.30;;;;;;4998928;28;20419;-77
2021/04/20 11:29:23;;;;;;;3.08;1.60;;;21.40;40.80;;;;;;4995061;28;20453;-73
2021/04/20 11:31:49;;;;;;;1.58;1.40;;;21.40;40.50;;;;;;4993974;28;20452;-73
2021/04/20 11:34:16;;;;;;;2.50;1.50;;;21.40;40.70;;;;;;5001077;28;20424;-73
2021/04/20 11:36:44;;;;;;;1.60;1.50;;;21.50;40.80;;;;;;4995526;28;20432;-72
2021/04/20 11:39:12;;;;;;;1.98;1.70;;;21.50;40.70;;;;;;4990546;28;20410;-77
2021/04/20 11:41:42;;;;;;;1.38;1.27;;;21.50;40.70;;;;;;4997043;28;20426;-73
2021/04/20 11:44:09;;;;;;;1.67;1.58;;;21.50;40.50;;;;;;4998734;28;20444;-73
2021/04/20 11:46:35;;;;;;;1.50;1.40;;;21.50;40.60;;;;;;4998999;28;20443;-72
2021/04/20 11:49:08;;;;;;;1.70;1.60;;;21.50;40.60;;;;;;4991842;28;20434;-72
2021/04/20 11:51:34;;;;;;;1.40;1.30;;;21.50;40.60;;;;;;5004108;28;20414;-72
2021/04/20 11:54:00;;;;;;;1.60;1.50;;;21.50;40.30;;;;;;4998247;28;20972;-73
2021/04/20 11:56:33;;;;;;;1.90;1.60;;;21.50;40.60;;;;;;4999729;28;20434;-73
2021/04/20 11:58:59;;;;;;;2.80;1.40;;;21.50;40.60;;;;;;4999816;28;20423;-73
2021/04/20 12:01:26;;;;;;;1.50;1.40;;;21.50;40.50;;;;;;5003989;28;20415;-74
2021/04/20 12:03:54;;;;;;;1.30;1.20;;;21.40;40.30;;;;;;5001359;28;20430;-75
2021/04/20 12:06:20;;;;;;;1.50;1.50;;;21.40;40.80;;;;;;4997763;28;21117;-72
2021/04/20 12:08:46;;;;;;;1.70;1.60;;;21.40;41.00;;;;;;5003008;28;21532;-77
2021/04/20 12:11:12;;;;;;;1.23;1.10;;;21.30;39.90;;;;;;4998386;28;20420;-75
2021/04/20 12:13:40;;;;;;;1.20;1.10;;;21.30;40.10;;;;;;4989209;28;20512;-75
2021/04/20 12:16:07;;;;;;;2.50;1.50;;;21.30;41.10;;;;;;5003099;28;20424;-74
2021/04/20 12:18:35;;;;;;;1.42;1.33;;;21.30;41.20;;;;;;5000230;28;20410;-74
2021/04/20 12:21:04;;;;;;;1.63;1.52;;;21.30;41.00;;;;;;4997475;28;20938;-75
2021/04/20 12:23:31;;;;;;;1.40;1.30;;;21.40;40.80;;;;;;4992815;28;20421;-73
2021/04/20 12:25:58;;;;;;;1.88;1.77;;;21.40;40.20;;;;;;5017634;28;20429;-77
2021/04/20 12:28:24;;;;;;;1.13;1.13;;;21.40;40.90;;;;;;5025609;28;20480;-75
2021/04/20 12:30:50;;;;;;;1.55;1.45;;;21.50;40.00;;;;;;5026703;28;21483;-71
2021/04/20 12:33:21;;;;;;;2.50;1.52;;;21.50;40.60;;;;;;5010036;28;20848;-71
2021/04/20 12:35:48;;;;;;;1.40;1.30;;;21.50;40.10;;;;;;4997835;28;20447;-74
2021/04/20 12:38:17;;;;;;;1.40;1.35;;;21.50;40.80;;;;;;4992573;28;20502;-76
2021/04/20 12:40:43;;;;;;;1.15;1.15;;;21.50;40.70;;;;;;5003327;28;20424;-74
2021/04/20 12:43:11;;;;;;;1.30;1.20;;;21.50;40.70;;;;;;4989746;28;20428;-74
2021/04/20 12:45:37;;;;;;;1.38;1.27;;;21.50;40.10;;;;;;4986289;28;20417;-74
2021/04/20 12:48:04;;;;;;;1.10;1.10;;;21.50;40.60;;;;;;5002960;28;20415;-72
2021/04/20 12:50:32;;;;;;;1.20;1.20;;;21.50;40.30;;;;;;5008637;28;20434;-79
2021/04/20 12:53:01;;;;;;;1.30;1.30;;;21.50;40.80;;;;;;4992811;28;20420;-72